Time;durP1;ratioP1;P1;durP2;ratioP2;P2;SDS_P1;SDS_P2;PMS_P1;PMS_P2;Temp;Humidity;BMP_temperature;BMP_pressure;BME280_temperature;BME280_humidity;BME280_pressure;Samples;Min_cycle;Max_cycle;Signal;HPM_P1;HPM_P2
2023/03/30 00:01:10;;;;;;;5.53;2.58;;;;;;;14.61;60.33;100537.75;5090844;28;20032;-88
2023/03/30 00:03:37;;;;;;;;;;;;;;;14.77;60.45;100540.31;5086829;28;20023;-87
2023/03/30 00:06:04;;;;;;;5.00;2.28;;;;;;;14.73;59.70;100531.66;5082725;28;20389;-88
2023/03/30 00:08:29;;;;;;;5.30;2.03;;;;;;;14.76;59.71;100519.97;5081117;28;20100;-88
2023/03/30 00:11:04;;;;;;;3.72;2.60;;;;;;;14.74;59.96;100522.75;5081739;28;20175;-88
2023/03/30 00:13:30;;;;;;;3.92;2.22;;;;;;;14.73;59.66;100513.03;5078221;28;20505;-88
2023/03/30 00:15:56;;;;;;;6.25;2.13;;;;;;;14.75;59.18;100512.94;5079549;28;20471;-88
2023/03/30 00:18:21;;;;;;;5.88;2.05;;;;;;;14.72;59.98;100503.34;5078472;28;20026;-88
2023/03/30 00:20:50;;;;;;;7.25;2.42;;;;;;;14.66;59.66;100505.53;5075571;28;20103;-88
2023/03/30 00:23:16;;;;;;;4.70;2.35;;;;;;;14.60;59.75;100505.94;5081321;28;20034;-87
2023/03/30 00:25:42;;;;;;;3.50;2.40;;;;;;;14.43;60.41;100512.25;5082623;28;20087;-88
2023/03/30 00:28:07;;;;;;;3.58;2.15;;;;;;;14.39;60.29;100508.91;5091888;28;20383;-89
2023/03/30 00:30:33;;;;;;;5.40;2.50;;;;;;;14.47;60.25;100490.69;5087480;28;20036;-88
2023/03/30 00:32:59;;;;;;;5.05;2.28;;;;;;;14.33;60.80;100505.78;5087970;28;20028;-89
2023/03/30 00:35:25;;;;;;;4.13;2.25;;;;;;;14.32;60.42;100502.28;5085489;28;20430;-89
2023/03/30 00:37:51;;;;;;;3.25;2.10;;;;;;;14.30;60.69;100502.34;5079928;28;20351;-89
2023/03/30 00:40:20;;;;;;;6.05;2.63;;;;;;;14.29;60.15;100487.34;5079453;28;20024;-89
2023/03/30 00:42:46;;;;;;;5.18;1.95;;;;;;;14.31;59.83;100473.94;5081489;28;20081;-89
2023/03/30 00:45:19;;;;;;;5.13;2.03;;;;;;;14.36;60.21;100481.66;5086962;28;20107;-89
2023/03/30 00:47:53;;;;;;;4.53;2.42;;;;;;;14.29;60.47;100475.84;5089610;28;20027;-88
2023/03/30 00:50:22;;;;;;;3.38;1.92;;;;;;;14.21;60.73;100478.97;5085264;28;20024;-88
2023/03/30 00:52:51;;;;;;;4.78;1.70;;;;;;;14.10;60.92;100477.94;5095624;28;20053;-89
2023/03/30 00:55:19;;;;;;;4.72;2.05;;;;;;;14.07;61.11;100454.19;5091075;28;20081;-88
2023/03/30 00:57:45;;;;;;;5.20;2.13;;;;;;;13.99;61.24;100458.19;5086695;28;20024;-87
2023/03/30 01:00:11;;;;;;;5.15;2.00;;;;;;;14.07;61.13;100455.03;5092321;28;20032;-88
2023/03/30 01:02:44;;;;;;;5.60;2.42;;;;;;;14.10;60.91;100433.59;5094085;28;20482;-88
2023/03/30 01:05:10;;;;;;;4.95;2.58;;;;;;;14.25;60.83;100451.25;5081708;28;20491;-88
2023/03/30 01:07:38;;;;;;;4.63;2.92;;;;;;;14.24;60.34;100436.25;5085093;28;20566;-89
2023/03/30 01:10:03;;;;;;;6.40;2.30;;;;;;;14.33;60.31;100447.28;5092176;28;20123;-89
2023/03/30 01:12:29;;;;;;;2.88;2.00;;;;;;;14.39;60.50;100449.56;5097583;28;20146;-89
2023/03/30 01:14:55;;;;;;;4.38;2.00;;;;;;;14.34;60.37;100448.97;5082042;28;20028;-89
2023/03/30 01:17:31;;;;;;;4.20;1.85;;;;;;;14.36;60.81;100439.97;5084897;28;20476;-89
2023/03/30 01:20:34;;;;;;;3.72;2.03;;;;;;;14.34;60.92;100448.97;5084612;28;20483;-88
2023/03/30 01:23:11;;;;;;;4.88;2.10;;;;;;;14.20;60.85;100455.16;5084719;28;20044;-88
2023/03/30 01:26:24;;;;;;;5.90;2.17;;;;;;;14.28;60.94;100461.72;5086676;28;20030;-89
2023/03/30 01:29:19;;;;;;;4.60;2.38;;;;;;;14.13;61.38;100448.47;5099778;28;20043;-89
2023/03/30 01:31:59;;;;;;;3.45;2.53;;;;;;;13.97;62.31;100445.91;5076080;28;20491;-89
2023/03/30 01:34:56;;;;;;;5.03;2.42;;;;;;;13.89;62.78;100459.66;5085790;28;20504;-88
2023/03/30 01:37:45;;;;;;;4.28;2.33;;;;;;;13.81;62.86;100447.81;5087238;28;20092;-89
2023/03/30 01:40:17;;;;;;;7.25;2.30;;;;;;;13.75;62.95;100452.50;5086224;28;20052;-88
2023/03/30 01:43:07;;;;;;;3.42;2.53;;;;;;;13.74;63.75;100447.28;5094839;28;20431;-88
2023/03/30 01:45:53;;;;;;;7.10;2.78;;;;;;;13.76;63.38;100429.47;5093192;28;20034;-88
2023/03/30 01:48:33;;;;;;;4.13;2.50;;;;;;;13.78;63.12;100424.91;5084114;28;20029;-89
2023/03/30 01:51:04;;;;;;;5.05;1.73;;;;;;;13.87;62.92;100421.69;5090864;28;20023;-89
2023/03/30 01:53:30;;;;;;;6.13;1.92;;;;;;;14.00;62.62;100422.66;5080268;28;20029;-89
2023/03/30 01:55:59;;;;;;;5.75;1.90;;;;;;;14.01;62.70;100418.22;5086527;28;20042;-89
2023/03/30 01:58:37;;;;;;;2.75;2.00;;;;;;;14.05;62.42;100433.03;5084048;28;20099;-88
2023/03/30 02:01:05;;;;;;;4.20;2.38;;;;;;;14.13;62.42;100444.06;5085447;28;20030;-89
2023/03/30 02:03:35;;;;;;;3.40;1.75;;;;;;;14.11;62.50;100455.72;5091939;28;20092;-88
2023/03/30 02:06:08;;;;;;;4.90;2.38;;;;;;;14.13;62.30;100445.81;5092701;28;20032;-88
2023/03/30 02:08:36;;;;;;;3.70;1.80;;;;;;;14.03;62.42;100432.25;5077752;28;20380;-89
2023/03/30 02:11:01;;;;;;;3.17;1.73;;;;;;;14.01;62.38;100437.66;5090251;28;20531;-88
2023/03/30 02:13:29;;;;;;;4.82;2.05;;;;;;;14.06;62.11;100449.81;5091333;28;20024;-89
2023/03/30 02:16:02;;;;;;;5.25;1.90;;;;;;;14.08;62.69;100450.56;5086123;28;20031;-89
2023/03/30 02:18:27;;;;;;;3.65;1.95;;;;;;;14.14;62.50;100439.59;5081947;28;20527;-89
2023/03/30 02:20:57;;;;;;;4.93;2.22;;;;;;;14.15;62.90;100442.13;5081118;28;20024;-89
2023/03/30 02:23:27;;;;;;;4.93;2.00;;;;;;;14.13;62.56;100441.41;5081269;28;20031;-89
2023/03/30 02:25:53;;;;;;;4.45;2.22;;;;;;;14.10;62.81;100428.28;5081925;28;20051;-89
2023/03/30 02:28:18;;;;;;;5.28;2.03;;;;;;;14.07;63.16;100420.47;5089861;28;20507;-88
2023/03/30 02:30:45;;;;;;;5.82;2.35;;;;;;;14.08;63.42;100429.31;5084106;28;20063;-89
2023/03/30 02:33:24;;;;;;;5.22;2.03;;;;;;;14.04;63.32;100418.88;5082413;28;20068;-89
2023/03/30 02:36:11;;;;;;;5.82;2.15;;;;;;;14.05;63.80;100433.03;5088830;28;20047;-89
2023/03/30 02:38:50;;;;;;;8.52;2.50;;;;;;;14.03;63.24;100437.56;5087821;28;20030;-88
2023/03/30 02:41:44;;;;;;;3.58;2.10;;;;;;;14.10;63.01;100430.09;5080826;28;20056;-89
2023/03/30 02:44:41;;;;;;;4.88;2.45;;;;;;;14.11;63.16;100424.66;5090146;28;20078;-89
2023/03/30 02:47:25;;;;;;;5.07;2.13;;;;;;;14.11;63.33;100432.63;5089385;28;20494;-88
2023/03/30 02:49:56;;;;;;;6.07;2.40;;;;;;;13.99;63.53;100436.06;5085149;28;20224;-88
2023/03/30 02:52:32;;;;;;;9.37;2.40;;;;;;;14.09;63.03;100434.56;5086190;28;20049;-89
2023/03/30 02:55:10;;;;;;;8.52;2.30;;;;;;;14.17;63.11;100434.06;5094567;28;20426;-88
2023/03/30 02:57:53;;;;;;;4.85;2.15;;;;;;;14.26;63.10;100434.34;5084387;28;20081;-88
2023/03/30 03:00:34;;;;;;;4.78;2.13;;;;;;;14.24;62.97;100430.94;5084906;28;20027;-90
2023/03/30 03:03:07;;;;;;;4.47;2.08;;;;;;;14.28;62.26;100427.16;5082772;28;20502;-89
2023/03/30 03:05:34;;;;;;;3.00;1.90;;;;;;;14.36;62.28;100424.00;5087967;28;20023;-88
2023/03/30 03:07:59;;;;;;;3.63;2.20;;;;;;;14.41;62.16;100416.59;5074883;28;20033;-89
2023/03/30 03:10:25;;;;;;;5.68;2.05;;;;;;;14.45;61.81;100415.44;5085073;28;20051;-89
2023/03/30 03:12:50;;;;;;;5.60;1.70;;;;;;;14.51;61.31;100407.13;5080707;28;20039;-89
2023/03/30 03:15:15;;;;;;;5.82;2.20;;;;;;;14.52;61.66;100407.97;5090676;28;20008;-89
2023/03/30 03:17:44;;;;;;;3.72;1.63;;;;;;;14.52;60.94;100415.94;5083202;28;20024;-89
2023/03/30 03:20:10;;;;;;;4.65;2.00;;;;;;;14.57;61.67;100419.16;5086676;28;20043;-89
2023/03/30 03:22:35;;;;;;;6.03;2.05;;;;;;;14.50;61.92;100417.84;5098477;27;20038;-89
2023/03/30 03:25:01;;;;;;;6.57;3.05;;;;;;;14.53;61.58;100420.31;5096578;28;20023;-89
2023/03/30 03:27:27;;;;;;;5.03;1.73;;;;;;;14.58;61.56;100412.03;5084803;28;20032;-89
2023/03/30 03:29:52;;;;;;;2.53;1.70;;;;;;;14.56;61.72;100412.16;5094481;28;20502;-88
2023/03/30 03:32:17;;;;;;;4.55;1.80;;;;;;;14.50;62.02;100408.06;5081529;28;20028;-89
2023/03/30 03:34:46;;;;;;;5.97;2.20;;;;;;;14.52;61.91;100402.66;5080116;28;20020;-89
2023/03/30 03:37:11;;;;;;;3.97;2.10;;;;;;;14.46;61.71;100413.66;5082564;28;20118;-89
2023/03/30 03:39:37;;;;;;;3.28;2.00;;;;;;;14.50;61.84;100416.06;5078189;28;20095;-89
2023/03/30 03:42:04;;;;;;;6.70;2.38;;;;;;;14.43;61.55;100408.50;5077790;28;20028;-89
2023/03/30 03:44:29;;;;;;;4.50;2.00;;;;;;;14.44;61.57;100408.41;5090295;28;20606;-89
2023/03/30 03:46:55;;;;;;;3.45;2.25;;;;;;;14.51;60.76;100401.81;5090231;28;20118;-89
2023/03/30 03:49:20;;;;;;;3.70;1.85;;;;;;;14.50;61.58;100401.88;5079843;28;20062;-89
2023/03/30 03:51:45;;;;;;;2.92;1.67;;;;;;;14.51;61.08;100403.59;5084645;28;20021;-88
2023/03/30 03:54:11;;;;;;;2.95;1.70;;;;;;;14.55;60.67;100405.13;5096865;27;20035;-89
2023/03/30 03:56:36;;;;;;;7.68;2.03;;;;;;;14.59;60.54;100403.94;5091138;28;20038;-88
2023/03/30 03:59:02;;;;;;;6.72;1.90;;;;;;;14.61;60.53;100394.09;5093539;28;20031;-88
2023/03/30 04:01:28;;;;;;;3.38;1.70;;;;;;;14.57;60.16;100399.69;5090226;28;20024;-88
2023/03/30 04:03:54;;;;;;;6.93;1.80;;;;;;;14.57;60.05;100383.72;5078392;28;20073;-88
2023/03/30 04:06:19;;;;;;;5.45;1.83;;;;;;;14.61;59.73;100398.56;5084638;28;20024;-88
2023/03/30 04:08:45;;;;;;;6.72;2.38;;;;;;;14.57;60.30;100392.56;5084472;28;20035;-89
2023/03/30 04:11:11;;;;;;;1.95;1.40;;;;;;;14.59;60.16;100392.47;5088822;28;20083;-89
2023/03/30 04:13:40;;;;;;;2.72;1.50;;;;;;;14.70;59.89;100390.84;5085816;28;20035;-88
2023/03/30 04:16:06;;;;;;;3.33;1.65;;;;;;;14.72;60.24;100394.22;5080018;28;20040;-89
2023/03/30 04:18:33;;;;;;;4.32;1.77;;;;;;;14.70;59.98;100382.84;5080285;28;20032;-88
2023/03/30 04:21:01;;;;;;;6.65;2.95;;;;;;;14.70;60.54;100387.31;5086303;28;20549;-89
2023/03/30 04:23:32;;;;;;;6.03;1.75;;;;;;;14.54;60.50;100387.44;5079924;28;20027;-87
2023/03/30 04:26:01;;;;;;;10.93;2.08;;;;;;;14.49;60.85;100376.22;5091361;28;20015;-87
2023/03/30 04:28:28;;;;;;;6.55;1.75;;;;;;;14.38;61.37;100365.41;5087089;28;20028;-89
2023/03/30 04:30:58;;;;;;;3.80;1.60;;;;;;;14.43;61.36;100380.09;5088985;28;20020;-89
2023/03/30 04:33:24;;;;;;;7.18;1.85;;;;;;;14.40;61.13;100382.94;5081893;28;20088;-88
2023/03/30 04:35:49;;;;;;;4.47;1.70;;;;;;;14.34;61.77;100369.19;5089811;28;20479;-89
2023/03/30 04:38:20;;;;;;;2.85;1.67;;;;;;;14.34;61.64;100366.53;5086141;28;20023;-89
2023/03/30 04:40:49;;;;;;;5.28;2.35;;;;;;;14.40;61.74;100367.00;5088066;28;20030;-89
2023/03/30 04:43:19;;;;;;;4.50;1.88;;;;;;;14.35;61.80;100365.59;5082476;28;20433;-88
2023/03/30 04:45:52;;;;;;;6.00;2.03;;;;;;;14.32;62.01;100353.34;5085161;28;20028;-89
2023/03/30 04:48:19;;;;;;;3.15;2.17;;;;;;;14.28;61.94;100363.31;5086409;28;20048;-88
2023/03/30 04:50:46;;;;;;;6.13;2.00;;;;;;;14.20;62.68;100357.63;5079305;28;20095;-89
2023/03/30 04:53:13;;;;;;;4.80;2.20;;;;;;;14.21;62.49;100362.00;5087889;28;20034;-89
2023/03/30 04:55:39;;;;;;;2.60;1.77;;;;;;;14.17;62.53;100349.84;5089358;28;20040;-89
2023/03/30 04:58:04;;;;;;;5.55;2.15;;;;;;;14.19;62.28;100357.75;5081324;28;20353;-88
2023/03/30 05:00:30;;;;;;;5.03;2.00;;;;;;;13.95;63.44;100360.97;5089135;28;20034;-89
2023/03/30 05:02:55;;;;;;;5.18;2.10;;;;;;;13.85;63.91;100372.25;5079266;28;20024;-89
2023/03/30 05:05:20;;;;;;;4.18;1.75;;;;;;;13.76;64.60;100365.72;5074649;28;20040;-88
2023/03/30 05:07:46;;;;;;;5.80;2.13;;;;;;;13.71;64.64;100367.81;5076339;28;20547;-89
2023/03/30 05:10:11;;;;;;;6.38;2.28;;;;;;;13.68;64.78;100375.94;5103166;28;20044;-89
2023/03/30 05:12:37;;;;;;;3.72;2.00;;;;;;;13.71;64.97;100394.38;5091827;28;20522;-88
2023/03/30 05:15:03;;;;;;;5.85;1.98;;;;;;;13.69;65.52;100412.19;5087370;28;20097;-89
2023/03/30 05:17:32;;;;;;;4.07;2.20;;;;;;;13.89;65.45;100416.28;5078683;28;20491;-89
2023/03/30 05:19:57;;;;;;;8.93;2.78;;;;;;;13.92;69.04;100421.44;5080388;28;20052;-89
2023/03/30 05:22:22;;;;;;;4.72;2.45;;;;;;;13.80;70.42;100401.75;5074305;28;20095;-88
2023/03/30 05:24:48;;;;;;;5.78;2.35;;;;;;;13.62;72.07;100409.06;5072658;28;20035;-87
2023/03/30 05:27:13;;;;;;;11.40;2.63;;;;;;;13.67;72.19;100422.06;5073091;28;20033;-87
2023/03/30 05:29:38;;;;;;;4.57;2.58;;;;;;;13.64;72.32;100435.50;5081632;28;20024;-87
2023/03/30 05:32:04;;;;;;;6.72;2.83;;;;;;;13.53;73.80;100429.03;5084096;28;20119;-88
2023/03/30 05:34:29;;;;;;;9.43;3.10;;;;;;;13.48;73.70;100420.50;5086570;28;20030;-88
2023/03/30 05:36:54;;;;;;;5.13;2.30;;;;;;;13.47;74.08;100434.69;5088414;28;20471;-88
2023/03/30 05:39:20;;;;;;;8.05;3.15;;;;;;;13.39;75.42;100446.72;5088338;28;20063;-88
2023/03/30 05:41:45;;;;;;;6.68;2.95;;;;;;;13.28;75.69;100434.91;5083666;28;20501;-88
2023/03/30 05:44:10;;;;;;;8.02;3.05;;;;;;;13.28;75.63;100437.56;5094206;27;20036;-87
2023/03/30 05:46:36;;;;;;;5.57;2.85;;;;;;;13.26;75.72;100444.78;5086485;28;20115;-88
2023/03/30 05:49:01;;;;;;;5.45;2.83;;;;;;;13.18;76.42;100444.31;5089479;28;20027;-87
2023/03/30 05:51:27;;;;;;;5.13;3.00;;;;;;;13.13;76.42;100451.69;5087837;28;20680;-87
2023/03/30 05:53:52;;;;;;;5.72;2.40;;;;;;;13.04;76.85;100433.63;5085864;28;20028;-87
2023/03/30 05:56:17;;;;;;;7.00;2.92;;;;;;;13.04;77.38;100433.63;5090009;28;20028;-87
2023/03/30 05:58:43;;;;;;;4.65;3.00;;;;;;;12.84;78.02;100440.06;5085480;28;20036;-87
2023/03/30 06:01:09;;;;;;;6.70;2.67;;;;;;;12.86;78.31;100419.59;5095161;28;20020;-87
2023/03/30 06:03:34;;;;;;;8.02;3.10;;;;;;;12.92;77.86;100437.00;5087853;28;20027;-87
2023/03/30 06:06:00;;;;;;;6.07;2.40;;;;;;;12.91;77.36;100445.88;5092315;28;20032;-87
2023/03/30 06:08:25;;;;;;;8.30;2.67;;;;;;;12.65;79.32;100453.50;5084305;28;20020;-88
2023/03/30 06:10:55;;;;;;;11.40;2.60;;;;;;;12.58;80.13;100457.41;5089464;28;20044;-88
2023/03/30 06:13:21;;;;;;;10.10;2.95;;;;;;;12.58;80.79;100449.47;5086446;28;20024;-87
2023/03/30 06:15:47;;;;;;;7.60;3.40;;;;;;;12.51;80.73;100451.59;5090989;28;20055;-87
2023/03/30 06:18:12;;;;;;;6.53;3.63;;;;;;;12.55;80.84;100451.44;5083855;28;20149;-87
2023/03/30 06:20:37;;;;;;;6.25;3.05;;;;;;;12.59;79.90;100448.53;5084149;28;20507;-87
2023/03/30 06:23:03;;;;;;;6.50;2.92;;;;;;;12.59;79.79;100459.16;5091842;28;20031;-87
2023/03/30 06:25:29;;;;;;;8.43;3.40;;;;;;;12.62;79.50;100456.31;5081503;28;20021;-88
2023/03/30 06:27:54;;;;;;;9.40;2.53;;;;;;;12.60;79.51;100439.66;5090402;28;20030;-87
2023/03/30 06:30:20;;;;;;;7.80;2.97;;;;;;;12.60;79.05;100447.59;5084417;28;20086;-87
2023/03/30 06:32:45;;;;;;;10.23;3.53;;;;;;;12.63;79.10;100452.72;5081489;28;20447;-88
2023/03/30 06:35:14;;;;;;;7.47;2.92;;;;;;;12.69;78.42;100454.19;5092888;28;20077;-87
2023/03/30 06:37:40;;;;;;;6.40;2.97;;;;;;;12.93;78.13;100475.84;5091416;28;20011;-87
2023/03/30 06:40:07;;;;;;;8.70;3.10;;;;;;;12.96;76.86;100465.94;5096077;28;20028;-87
2023/03/30 06:42:33;;;;;;;8.55;3.00;;;;;;;12.92;78.21;100468.84;5083792;28;20032;-87
2023/03/30 06:44:58;;;;;;;8.15;3.05;;;;;;;12.69;78.36;100468.31;5082698;28;20024;-88
2023/03/30 06:47:23;;;;;;;9.75;2.85;;;;;;;12.68;79.14;100468.38;5080794;28;20111;-88
2023/03/30 06:49:49;;;;;;;6.18;2.60;;;;;;;12.68;79.00;100465.72;5091528;28;20069;-87
2023/03/30 06:52:14;;;;;;;5.20;2.40;;;;;;;12.74;79.13;100476.00;5078062;28;20035;-87
2023/03/30 06:54:39;;;;;;;7.35;3.33;;;;;;;12.75;79.21;100477.72;5084763;28;20523;-87
2023/03/30 06:57:05;;;;;;;8.93;3.20;;;;;;;12.70;79.81;100475.31;5078159;28;20036;-87
2023/03/30 06:59:32;;;;;;;10.00;3.13;;;;;;;12.67;79.57;100475.47;5091002;28;20020;-87
2023/03/30 07:01:58;;;;;;;7.82;2.47;;;;;;;12.64;79.97;100480.13;5088396;28;20036;-88
2023/03/30 07:04:23;;;;;;;8.00;2.78;;;;;;;12.67;79.91;100467.53;5084897;28;20016;-87
2023/03/30 07:06:49;;;;;;;8.73;2.83;;;;;;;12.71;79.79;100484.13;5092594;28;20548;-87
2023/03/30 07:09:14;;;;;;;5.25;2.30;;;;;;;12.79;78.67;100473.97;5106191;28;20055;-87
2023/03/30 07:11:39;;;;;;;10.70;3.03;;;;;;;12.87;78.21;100471.75;5096101;28;20515;-87
2023/03/30 07:14:05;;;;;;;6.50;2.40;;;;;;;12.93;78.42;100486.47;5082382;28;20024;-87
2023/03/30 07:16:30;;;;;;;7.93;2.63;;;;;;;12.95;77.62;100485.41;5088569;28;20462;-86
2023/03/30 07:18:56;;;;;;;8.00;2.67;;;;;;;13.21;77.97;100480.47;5082110;28;20097;-86
2023/03/30 07:21:22;;;;;;;10.02;2.92;;;;;;;13.03;78.32;100491.16;5085298;28;20106;-86
2023/03/30 07:23:47;;;;;;;6.90;2.45;;;;;;;13.08;77.98;100477.63;5087321;28;20031;-87
2023/03/30 07:26:12;;;;;;;6.70;2.20;;;;;;;13.18;77.61;100489.44;5091130;28;20028;-87
2023/03/30 07:28:39;;;;;;;8.00;2.28;;;;;;;13.22;76.70;100485.72;5101696;27;20042;-87
2023/03/30 07:31:06;;;;;;;7.18;2.17;;;;;;;13.38;77.55;100498.97;5090431;28;20098;-86
2023/03/30 07:33:33;;;;;;;9.15;2.70;;;;;;;13.62;76.31;100499.38;5088069;28;20028;-87
2023/03/30 07:35:58;;;;;;;7.10;1.85;;;;;;;13.81;74.28;100499.13;5088380;28;20111;-87
2023/03/30 07:38:23;;;;;;;9.63;2.85;;;;;;;13.94;73.88;100499.25;5076856;28;20117;-87
2023/03/30 07:40:49;;;;;;;8.45;2.85;;;;;;;14.00;72.74;100496.25;5089107;28;20028;-87
2023/03/30 07:43:14;;;;;;;8.20;1.83;;;;;;;14.01;72.25;100504.13;5090822;28;20032;-87
2023/03/30 07:45:39;;;;;;;11.73;3.03;;;;;;;14.13;71.71;100512.28;5085046;28;20455;-88
2023/03/30 07:48:05;;;;;;;10.77;2.30;;;;;;;14.13;71.78;100509.63;5086336;28;20032;-88
2023/03/30 07:50:30;;;;;;;10.98;2.83;;;;;;;14.16;71.35;100505.00;5092084;28;20496;-87
2023/03/30 07:52:55;;;;;;;12.13;3.05;;;;;;;14.15;71.40;100513.06;5094647;28;20479;-88
2023/03/30 07:55:21;;;;;;;9.77;2.67;;;;;;;14.16;71.21;100517.44;5085083;28;20035;-88
2023/03/30 07:57:46;;;;;;;15.43;2.58;;;;;;;14.29;70.67;100526.38;5087831;28;20396;-88
2023/03/30 08:00:13;;;;;;;13.02;2.58;;;;;;;14.33;71.02;100519.09;5093775;28;20032;-87
2023/03/30 08:02:39;;;;;;;9.35;2.15;;;;;;;14.36;70.54;100521.53;5086875;28;20043;-88
2023/03/30 08:05:05;;;;;;;10.18;2.10;;;;;;;14.43;70.53;100520.22;5092032;28;20028;-88
2023/03/30 08:07:33;;;;;;;11.15;2.65;;;;;;;14.40;69.37;100521.25;5084414;28;20089;-88
2023/03/30 08:09:58;;;;;;;8.18;2.42;;;;;;;14.54;69.70;100539.06;5083030;28;20068;-88
2023/03/30 08:12:23;;;;;;;10.90;2.45;;;;;;;14.59;69.29;100531.66;5080291;28;20531;-88
2023/03/30 08:14:48;;;;;;;14.93;2.60;;;;;;;14.70;68.29;100539.84;5086605;28;20293;-90
2023/03/30 08:17:14;;;;;;;8.25;2.53;;;;;;;14.73;67.73;100536.13;5080395;28;20467;-88
2023/03/30 08:19:39;;;;;;;7.50;2.65;;;;;;;14.72;67.60;100534.41;5086853;28;20024;-88
2023/03/30 08:22:04;;;;;;;13.60;2.95;;;;;;;14.72;67.38;100537.06;5087625;28;20090;-88
2023/03/30 08:24:30;;;;;;;9.73;2.30;;;;;;;14.67;67.42;100540.03;5087511;28;20036;-89
2023/03/30 08:26:55;;;;;;;7.75;2.22;;;;;;;14.70;67.28;100542.50;5085559;28;20024;-88
2023/03/30 08:29:20;;;;;;;14.70;2.70;;;;;;;14.67;67.67;100553.31;5089116;28;20036;-88
2023/03/30 08:31:46;;;;;;;8.48;2.80;;;;;;;14.59;67.03;100552.94;5085151;28;20077;-89
2023/03/30 08:34:11;;;;;;;12.85;3.10;;;;;;;14.48;67.40;100550.09;5074408;28;20036;-89
2023/03/30 08:36:37;;;;;;;13.73;2.55;;;;;;;14.54;67.09;100544.38;5086604;28;20032;-88
2023/03/30 08:39:03;;;;;;;9.00;2.28;;;;;;;14.67;65.15;100544.50;5079477;28;20056;-89
2023/03/30 08:41:28;;;;;;;16.40;3.33;;;;;;;14.86;64.64;100552.19;5079776;28;20060;-89
2023/03/30 08:43:57;;;;;;;10.23;2.47;;;;;;;14.96;65.28;100545.31;5081465;28;20526;-91
2023/03/30 08:46:23;;;;;;;10.07;2.53;;;;;;;15.17;64.75;100543.13;5066433;28;20515;-91
2023/03/30 08:48:51;;;;;;;15.65;2.50;;;;;;;15.61;63.37;100545.53;5086306;28;20056;-92
2023/03/30 08:51:23;;;;;;;15.68;2.63;;;;;;;15.85;62.09;100542.25;5091535;28;20024;-90
2023/03/30 08:54:00;;;;;;;11.32;2.47;;;;;;;16.21;61.39;100537.09;5079166;28;20510;-91
2023/03/30 08:56:28;;;;;;;13.85;2.75;;;;;;;16.64;58.55;100554.59;5078101;28;20107;-88
2023/03/30 08:59:16;;;;;;;11.13;2.80;;;;;;;16.74;57.69;100537.88;5087100;28;20028;-88
2023/03/30 09:02:08;;;;;;;13.77;2.97;;;;;;;16.82;56.87;100556.88;5080431;28;20093;-89
2023/03/30 09:04:45;;;;;;;12.30;2.90;;;;;;;16.96;56.17;100563.91;5064515;28;20036;-89
2023/03/30 09:07:20;;;;;;;9.40;2.25;;;;;;;17.33;57.43;100553.25;5091592;28;20080;-89
2023/03/30 09:09:47;;;;;;;8.48;2.17;;;;;;;17.67;54.38;100550.75;5075421;28;20059;-89
2023/03/30 09:12:19;;;;;;;9.18;2.05;;;;;;;17.85;53.87;100558.28;5094370;28;20019;-90
2023/03/30 09:14:49;;;;;;;9.35;1.77;;;;;;;17.74;54.56;100544.88;5096058;28;20479;-89
2023/03/30 09:17:31;;;;;;;13.77;3.05;;;;;;;17.42;55.81;100573.09;5096414;28;20030;-90
2023/03/30 09:20:05;;;;;;;9.10;2.40;;;;;;;16.88;54.63;100554.72;5089643;28;20040;-89
2023/03/30 09:22:36;;;;;;;9.88;2.33;;;;;;;16.64;55.21;100557.28;5091564;28;20027;-90
2023/03/30 09:25:10;;;;;;;10.65;3.33;;;;;;;16.35;54.75;100580.66;5105091;28;20039;-90
2023/03/30 09:27:50;;;;;;;11.95;2.53;;;;;;;16.04;57.25;100575.59;5073689;28;20293;-90
2023/03/30 09:30:19;;;;;;;13.90;2.72;;;;;;;15.94;58.21;100584.28;5089916;28;20040;-90
2023/03/30 09:32:58;;;;;;;12.85;2.60;;;;;;;15.90;58.25;100588.09;5092763;28;20493;-89
2023/03/30 09:35:33;;;;;;;18.42;3.22;;;;;;;15.78;57.45;100581.78;5092913;28;20593;-90
2023/03/30 09:37:58;;;;;;;9.35;3.20;;;;;;;15.80;57.98;100588.72;5085989;28;20430;-90
2023/03/30 09:40:59;;;;;;;8.15;2.80;;;;;;;16.56;56.94;100592.53;5090922;28;20027;-89
2023/03/30 09:43:56;;;;;;;11.38;2.90;;;;;;;17.29;53.25;100605.19;5082290;28;20054;-93
2023/03/30 09:46:22;;;;;;;12.00;2.95;;;;;;;18.03;51.23;100587.28;5074947;28;20037;-93
2023/03/30 09:48:48;;;;;;;8.85;2.97;;;;;;;19.30;47.03;100597.00;5090872;28;20034;-93
2023/03/30 09:51:30;;;;;;;9.50;3.00;;;;;;;20.02;47.03;100595.63;5094123;28;20494;-93
2023/03/30 09:54:01;;;;;;;14.35;3.20;;;;;;;19.23;47.37;100581.53;5083244;28;20498;-93
2023/03/30 09:56:36;;;;;;;15.23;3.53;;;;;;;19.48;47.08;100593.81;5081227;28;20099;-94
2023/03/30 09:59:27;;;;;;;15.10;3.03;;;;;;;19.18;48.53;100605.19;5083859;28;20024;-92
2023/03/30 10:02:09;;;;;;;11.02;3.42;;;;;;;18.49;50.18;100603.38;5096235;28;20488;-92
2023/03/30 10:04:55;;;;;;;14.25;3.58;;;;;;;18.20;50.12;100605.59;5081882;28;20375;-93
2023/03/30 10:07:26;;;;;;;12.75;3.10;;;;;;;17.71;50.75;100609.22;5083785;28;20028;-94
2023/03/30 10:09:52;;;;;;;10.57;2.97;;;;;;;17.31;52.18;100596.13;5083404;28;20042;-93
2023/03/30 10:12:18;;;;;;;12.63;3.17;;;;;;;17.27;52.86;100610.66;5096921;28;20048;-93
2023/03/30 10:14:44;;;;;;;13.85;3.33;;;;;;;17.13;52.60;100610.78;5088918;28;20023;-93
2023/03/30 10:17:21;;;;;;;14.88;3.33;;;;;;;16.98;54.09;100610.06;5089110;28;20099;-92
2023/03/30 10:19:46;;;;;;;12.82;3.53;;;;;;;16.86;53.58;100608.25;5092144;28;20475;-92
2023/03/30 10:22:16;;;;;;;16.85;3.50;;;;;;;16.82;53.38;100610.25;5094512;28;20158;-93
2023/03/30 10:24:54;;;;;;;17.90;3.53;;;;;;;16.95;53.73;100612.94;5103528;28;20040;-93
2023/03/30 10:27:29;;;;;;;11.73;3.20;;;;;;;17.32;52.40;100621.00;5080723;28;20322;-92
2023/03/30 10:29:54;;;;;;;12.02;3.40;;;;;;;18.46;50.12;100605.44;5096453;28;20482;-92
2023/03/30 10:32:27;;;;;;;17.98;3.45;;;;;;;19.74;47.25;100614.03;5088210;28;20029;-93
2023/03/30 10:34:56;;;;;;;11.73;2.60;;;;;;;21.08;45.39;100617.00;5085669;28;20383;-93
2023/03/30 10:37:36;;;;;;;11.15;2.80;;;;;;;21.63;43.68;100604.03;5097109;28;20475;-92
2023/03/30 10:40:11;;;;;;;8.85;2.75;;;;;;;21.11;43.93;100622.94;5094563;28;20031;-93
2023/03/30 10:42:37;;;;;;;11.63;3.08;;;;;;;19.97;44.53;100611.28;5080263;28;20042;-93
2023/03/30 10:45:05;;;;;;;14.15;2.90;;;;;;;20.30;44.08;100608.44;5091316;28;20023;-93
2023/03/30 10:47:33;;;;;;;13.10;3.55;;;;;;;20.35;43.91;100611.59;5092339;28;20032;-92
2023/03/30 10:50:06;;;;;;;8.40;2.55;;;;;;;20.15;44.96;100615.09;5097204;28;20038;-93
2023/03/30 10:52:43;;;;;;;9.05;2.70;;;;;;;20.82;44.03;100612.06;5094016;28;20033;-92
2023/03/30 10:55:16;;;;;;;14.15;2.85;;;;;;;20.08;43.78;100601.34;5099260;27;20034;-93
2023/03/30 10:58:10;;;;;;;13.90;2.90;;;;;;;19.98;44.42;100611.13;5089244;28;20355;-93
2023/03/30 11:01:03;;;;;;;11.13;3.50;;;;;;;20.02;44.63;100611.75;5070994;28;20439;-92
2023/03/30 11:03:31;;;;;;;;;;;;;;;20.15;44.92;100617.78;5075749;28;20029;-92
2023/03/30 11:06:05;;;;;;;9.90;3.38;;;;;;;19.48;46.10;100610.75;5076198;28;20280;-92
2023/03/30 11:08:36;;;;;;;10.90;3.20;;;;;;;19.85;45.05;100608.63;5102736;28;20021;-92
2023/03/30 11:11:04;;;;;;;10.80;2.90;;;;;;;19.54;45.16;100614.78;5078852;28;20114;-92
2023/03/30 11:13:35;;;;;;;10.25;3.58;;;;;;;19.19;46.56;100618.44;5075811;28;20294;-93
2023/03/30 11:16:19;;;;;;;11.85;3.15;;;;;;;19.46;46.23;100620.75;5079474;28;20091;-93
2023/03/30 11:19:00;;;;;;;11.13;3.08;;;;;;;20.08;45.56;100611.22;5087805;28;20031;-94
2023/03/30 11:21:40;;;;;;;10.00;2.78;;;;;;;20.87;43.42;100615.19;5084574;28;20085;-93
2023/03/30 11:24:22;;;;;;;10.77;2.80;;;;;;;21.28;43.69;100612.53;5087964;28;20364;-92
2023/03/30 11:27:02;;;;;;;6.45;2.30;;;;;;;21.29;41.67;100608.88;5097474;28;20032;-92
2023/03/30 11:29:47;;;;;;;10.07;2.80;;;;;;;20.53;42.21;100611.03;5083372;28;20016;-94
2023/03/30 11:32:37;;;;;;;11.43;2.60;;;;;;;19.46;44.76;100610.03;5076837;28;20044;-93
2023/03/30 11:35:24;;;;;;;9.10;2.55;;;;;;;19.09;46.43;100617.50;5078049;28;20028;-93
2023/03/30 11:38:07;;;;;;;10.43;3.10;;;;;;;19.01;46.41;100610.03;5076149;28;20398;-92